Time;durP1;ratioP1;P1;durP2;ratioP2;P2;SDS_P1;SDS_P2;PMS_P1;PMS_P2;Temp;Humidity;BMP_temperature;BMP_pressure;BME280_temperature;BME280_humidity;BME280_pressure;Samples;Min_cycle;Max_cycle;Signal;HPM_P1;HPM_P2
2022/01/09 04:29:56;;;;;;;20.30;12.70;;;;;;;;;;6213700;23;20029;-90
2022/01/09 04:32:22;;;;;;;18.73;12.73;;;;;;;;;;6186792;23;20012;-90
2022/01/09 04:34:47;;;;;;;21.33;13.07;;;;;;;;;;6213138;23;20071;-89
2022/01/09 04:37:12;;;;;;;18.75;14.65;;;;;;;;;;6213533;23;20005;-90
2022/01/09 04:39:37;;;;;;;16.48;12.27;;;;;;;;;;6186382;23;20012;-90
2022/01/09 04:42:03;;;;;;;19.92;12.23;;;;;;;;;;6186532;23;20107;-90
2022/01/09 04:44:28;;;;;;;24.30;12.98;;;;;;;;;;6186288;23;20004;-90
2022/01/09 04:46:59;;;;;;;25.70;14.63;;;;;;;;;;6216761;23;19996;-89
2022/01/09 04:49:28;;;;;;;17.87;11.53;;;;;;;;;;6187596;23;20001;-90
2022/01/09 04:51:54;;;;;;;16.02;11.82;;;;;;;;;;6186929;23;20396;-90
2022/01/09 04:54:20;;;;;;;22.73;15.18;;;;;;;;;;6186773;23;20329;-90
2022/01/09 04:56:45;;;;;;;18.27;11.97;;;;;;;;;;6186554;23;19997;-89
2022/01/09 04:59:10;;;;;;;18.52;12.27;;;;;;;;;;6186317;23;20255;-90
2022/01/09 05:01:35;;;;;;;21.42;13.75;;;;;;;;;;6187077;23;20368;-90
2022/01/09 05:04:00;;;;;;;16.70;13.00;;;;;;;;;;6213116;23;20007;-90
2022/01/09 05:06:26;;;;;;;17.95;12.68;;;;;;;;;;6186561;23;20959;-90
2022/01/09 05:08:51;;;;;;;20.43;14.60;;;;;;;;;;6190346;23;20353;-90
2022/01/09 05:11:16;;;;;;;18.00;11.93;;;;;;;;;;6214765;23;20248;-90
2022/01/09 05:13:41;;;;;;;18.03;13.03;;;;;;;;;;6213236;23;20656;-90
2022/01/09 05:16:07;;;;;;;16.15;12.48;;;;;;;;;;6186173;23;20231;-90
2022/01/09 05:18:40;;;;;;;17.65;12.35;;;;;;;;;;6212686;23;20429;-90
2022/01/09 05:21:05;;;;;;;21.85;12.57;;;;;;;;;;6187279;23;20004;-90
2022/01/09 05:23:30;;;;;;;20.10;13.75;;;;;;;;;;6213650;23;20099;-91
2022/01/09 05:25:55;;;;;;;18.30;12.45;;;;;;;;;;6186358;23;20020;-91
2022/01/09 05:28:20;;;;;;;20.50;11.82;;;;;;;;;;6186607;23;20337;-89
2022/01/09 05:30:46;;;;;;;19.27;12.97;;;;;;;;;;6213907;23;19993;-90
2022/01/09 05:33:11;;;;;;;19.30;13.13;;;;;;;;;;6221605;23;20239;-90
2022/01/09 05:35:36;;;;;;;19.02;12.38;;;;;;;;;;6188329;23;20246;-91
2022/01/09 05:38:01;;;;;;;22.77;12.93;;;;;;;;;;6185960;23;20016;-91
2022/01/09 05:40:27;;;;;;;18.45;14.52;;;;;;;;;;6186465;23;20045;-91
2022/01/09 05:42:52;;;;;;;17.48;13.23;;;;;;;;;;6186440;23;20329;-90
2022/01/09 05:45:18;;;;;;;22.10;12.80;;;;;;;;;;6212688;23;19997;-91
2022/01/09 05:47:43;;;;;;;22.58;15.00;;;;;;;;;;6185867;23;20032;-90
2022/01/09 05:50:09;;;;;;;18.08;12.57;;;;;;;;;;6186773;23;20004;-90
2022/01/09 05:52:34;;;;;;;23.25;14.27;;;;;;;;;;6212912;23;20000;-90
2022/01/09 05:54:59;;;;;;;19.52;14.98;;;;;;;;;;6212371;23;20004;-90
2022/01/09 05:57:24;;;;;;;25.93;14.33;;;;;;;;;;6185902;23;20008;-90
2022/01/09 05:59:50;;;;;;;18.55;13.30;;;;;;;;;;6193156;23;20259;-90
2022/01/09 06:02:15;;;;;;;26.80;15.30;;;;;;;;;;6214296;23;20421;-90
2022/01/09 06:04:40;;;;;;;23.27;14.82;;;;;;;;;;6212914;23;20227;-90
2022/01/09 06:07:05;;;;;;;23.92;15.70;;;;;;;;;;6185641;23;20425;-90
2022/01/09 06:09:31;;;;;;;26.77;16.48;;;;;;;;;;6185789;23;20027;-90
2022/01/09 06:11:56;;;;;;;18.90;13.40;;;;;;;;;;6185980;23;20004;-90
2022/01/09 06:14:21;;;;;;;21.73;13.27;;;;;;;;;;6186148;23;20333;-90
2022/01/09 06:16:47;;;;;;;21.27;15.18;;;;;;;;;;6212446;23;20005;-89
2022/01/09 06:19:13;;;;;;;21.92;14.85;;;;;;;;;;6212269;23;20009;-90
2022/01/09 06:21:38;;;;;;;21.25;14.98;;;;;;;;;;6186344;23;20039;-90
2022/01/09 06:24:03;;;;;;;23.25;14.77;;;;;;;;;;6191878;23;20001;-90
2022/01/09 06:26:29;;;;;;;28.27;15.60;;;;;;;;;;6188852;23;20001;-90
2022/01/09 06:28:54;;;;;;;23.27;14.75;;;;;;;;;;6188077;23;20017;-90
2022/01/09 06:31:19;;;;;;;25.77;16.80;;;;;;;;;;6186725;23;20000;-90
2022/01/09 06:33:44;;;;;;;24.67;15.20;;;;;;;;;;6186074;23;20009;-90
2022/01/09 06:36:10;;;;;;;30.88;19.05;;;;;;;;;;6186103;23;20000;-90
2022/01/09 06:38:37;;;;;;;27.80;16.88;;;;;;;;;;6212317;23;20024;-90
2022/01/09 06:41:02;;;;;;;28.58;18.08;;;;;;;;;;6213695;23;20063;-90
2022/01/09 06:43:28;;;;;;;26.15;15.70;;;;;;;;;;6215688;23;20001;-91
2022/01/09 06:45:53;;;;;;;25.60;17.33;;;;;;;;;;6216006;23;20047;-90
2022/01/09 06:48:18;;;;;;;34.58;19.58;;;;;;;;;;6195965;23;20008;-89
2022/01/09 06:50:43;;;;;;;37.08;20.02;;;;;;;;;;6218590;23;19993;-89
2022/01/09 06:53:09;;;;;;;25.02;16.17;;;;;;;;;;6217599;23;20767;-89
2022/01/09 06:55:34;;;;;;;30.58;17.45;;;;;;;;;;6191419;23;20003;-89
2022/01/09 06:58:00;;;;;;;33.75;19.83;;;;;;;;;;6191320;23;20375;-89
2022/01/09 07:00:25;;;;;;;27.38;18.83;;;;;;;;;;6218276;23;20035;-90
2022/01/09 07:02:50;;;;;;;28.67;17.88;;;;;;;;;;6191211;23;20083;-89
2022/01/09 07:05:15;;;;;;;25.10;17.63;;;;;;;;;;6217652;23;20483;-89
2022/01/09 07:07:41;;;;;;;28.05;16.98;;;;;;;;;;6190962;23;20088;-89
2022/01/09 07:10:06;;;;;;;31.92;19.58;;;;;;;;;;6217352;23;20107;-89
2022/01/09 07:12:31;;;;;;;23.25;16.75;;;;;;;;;;6228999;23;19985;-89
2022/01/09 07:14:57;;;;;;;27.30;17.63;;;;;;;;;;6217917;23;19989;-89
2022/01/09 07:17:22;;;;;;;25.13;18.73;;;;;;;;;;6190692;23;21039;-88
2022/01/09 07:19:47;;;;;;;26.40;17.17;;;;;;;;;;6190742;23;20372;-89
2022/01/09 07:22:12;;;;;;;25.40;16.52;;;;;;;;;;6190574;23;20027;-89
2022/01/09 07:24:37;;;;;;;20.60;15.68;;;;;;;;;;6191358;23;20001;-89
2022/01/09 07:27:03;;;;;;;29.63;17.20;;;;;;;;;;6217719;23;20047;-89
2022/01/09 07:29:28;;;;;;;31.67;18.25;;;;;;;;;;6216905;23;20254;-89
2022/01/09 07:31:53;;;;;;;21.48;14.98;;;;;;;;;;6217381;23;20000;-90
2022/01/09 07:34:19;;;;;;;19.45;15.02;;;;;;;;;;6217270;23;20004;-90
2022/01/09 07:36:44;;;;;;;20.35;15.60;;;;;;;;;;6190675;23;20000;-90
2022/01/09 07:39:09;;;;;;;20.90;15.50;;;;;;;;;;6216880;23;20035;-90
2022/01/09 07:41:35;;;;;;;21.50;15.80;;;;;;;;;;6196521;23;20244;-90
2022/01/09 07:44:00;;;;;;;23.80;17.52;;;;;;;;;;6217378;23;20027;-89
2022/01/09 07:46:25;;;;;;;19.42;15.45;;;;;;;;;;6190584;23;19992;-89
2022/01/09 07:48:51;;;;;;;24.52;15.98;;;;;;;;;;6190774;23;20000;-89
2022/01/09 07:51:16;;;;;;;19.88;15.57;;;;;;;;;;6217294;23;20032;-90
2022/01/09 07:53:41;;;;;;;25.77;17.35;;;;;;;;;;6217194;23;20000;-90
2022/01/09 07:56:06;;;;;;;18.42;14.90;;;;;;;;;;6190783;23;20035;-90
2022/01/09 07:58:32;;;;;;;28.75;18.25;;;;;;;;;;6217039;23;20000;-89
2022/01/09 08:00:58;;;;;;;24.83;16.70;;;;;;;;;;6190438;23;20008;-90
2022/01/09 08:03:23;;;;;;;23.90;16.67;;;;;;;;;;6190312;23;20719;-89
2022/01/09 08:05:48;;;;;;;27.92;16.15;;;;;;;;;;6201529;23;19992;-90
2022/01/09 08:08:13;;;;;;;26.10;15.25;;;;;;;;;;6194985;23;20013;-90
2022/01/09 08:10:39;;;;;;;26.65;17.25;;;;;;;;;;6187548;23;19996;-91
2022/01/09 08:13:04;;;;;;;21.60;15.93;;;;;;;;;;6188566;23;19992;-90
2022/01/09 08:15:29;;;;;;;22.00;15.57;;;;;;;;;;6215617;23;19997;-90
2022/01/09 08:17:55;;;;;;;20.55;16.08;;;;;;;;;;6187051;23;20509;-90
2022/01/09 08:20:21;;;;;;;21.50;16.08;;;;;;;;;;6186703;23;20000;-90
2022/01/09 08:22:46;;;;;;;19.65;15.82;;;;;;;;;;6186624;23;20046;-90
2022/01/09 08:25:12;;;;;;;23.27;17.48;;;;;;;;;;6186322;23;20000;-90
2022/01/09 08:27:38;;;;;;;18.77;14.55;;;;;;;;;;6213233;23;20003;-90
2022/01/09 08:30:04;;;;;;;18.60;13.98;;;;;;;;;;6191149;23;20001;-90
2022/01/09 08:32:30;;;;;;;25.48;16.23;;;;;;;;;;6187435;23;20001;-91
2022/01/09 08:34:55;;;;;;;17.17;13.85;;;;;;;;;;6186452;23;20004;-90
2022/01/09 08:37:21;;;;;;;19.57;15.60;;;;;;;;;;6213526;23;20071;-90
2022/01/09 08:39:46;;;;;;;21.55;15.32;;;;;;;;;;6188338;23;20302;-90
2022/01/09 08:42:12;;;;;;;23.77;15.77;;;;;;;;;;6214313;23;20000;-90
2022/01/09 08:44:38;;;;;;;19.00;15.23;;;;;;;;;;6186920;23;20005;-90
2022/01/09 08:47:03;;;;;;;23.63;17.00;;;;;;;;;;6214787;23;20000;-89
2022/01/09 08:49:28;;;;;;;22.00;15.27;;;;;;;;;;6189058;23;20032;-90
2022/01/09 08:51:55;;;;;;;21.67;16.35;;;;;;;;;;6216685;23;20322;-90
2022/01/09 08:54:20;;;;;;;18.77;14.50;;;;;;;;;;6190404;23;20007;-90
2022/01/09 08:56:45;;;;;;;18.77;15.32;;;;;;;;;;6190425;23;20001;-90
2022/01/09 08:59:12;;;;;;;18.20;14.57;;;;;;;;;;6190434;23;20723;-89
2022/01/09 09:01:37;;;;;;;18.00;14.02;;;;;;;;;;6190016;23;20791;-90
2022/01/09 09:04:02;;;;;;;16.17;13.82;;;;;;;;;;6216550;23;19992;-90
2022/01/09 09:06:27;;;;;;;18.35;13.20;;;;;;;;;;6189900;23;20000;-90
2022/01/09 09:08:53;;;;;;;16.38;13.68;;;;;;;;;;6190050;23;19997;-89
2022/01/09 09:11:18;;;;;;;17.10;14.73;;;;;;;;;;6216122;23;19993;-90
2022/01/09 09:13:43;;;;;;;19.15;14.40;;;;;;;;;;6189800;23;20005;-90
2022/01/09 09:16:09;;;;;;;16.35;13.82;;;;;;;;;;6189734;23;20000;-90
2022/01/09 09:18:35;;;;;;;18.73;13.88;;;;;;;;;;6189779;23;20170;-90
2022/01/09 09:21:00;;;;;;;16.88;14.18;;;;;;;;;;6189627;23;19997;-90
2022/01/09 09:23:26;;;;;;;18.23;13.30;;;;;;;;;;6216025;23;20029;-90
2022/01/09 09:25:51;;;;;;;14.85;13.27;;;;;;;;;;6189812;23;20001;-90
2022/01/09 09:28:16;;;;;;;16.25;14.13;;;;;;;;;;6215966;23;20717;-90
2022/01/09 09:30:41;;;;;;;17.30;13.38;;;;;;;;;;6216740;23;19997;-90
2022/01/09 09:33:07;;;;;;;13.23;11.82;;;;;;;;;;6189248;23;19997;-90
2022/01/09 09:35:32;;;;;;;15.20;12.57;;;;;;;;;;6186122;23;19997;-91
2022/01/09 09:37:58;;;;;;;13.90;12.35;;;;;;;;;;6185887;23;20345;-91
2022/01/09 09:40:23;;;;;;;17.02;13.93;;;;;;;;;;6186478;23;20055;-91
2022/01/09 09:42:49;;;;;;;14.85;12.65;;;;;;;;;;6186852;23;20055;-91
2022/01/09 09:45:14;;;;;;;18.27;14.52;;;;;;;;;;6187230;23;20004;-91
2022/01/09 21:04:34;;;;;;;42.38;30.52;;;;;;;;;;6171326;23;20051;-89
2022/01/09 21:06:59;;;;;;;46.37;29.43;;;;;;;;;;6183025;23;20067;-89
2022/01/09 21:09:26;;;;;;;40.80;28.25;;;;;;;;;;6181047;23;20001;-89
2022/01/09 21:11:53;;;;;;;63.10;33.42;;;;;;;;;;6182751;23;20000;-89
2022/01/09 21:14:19;;;;;;;42.30;27.10;;;;;;;;;;6156562;23;20484;-90
2022/01/09 21:16:44;;;;;;;33.33;24.42;;;;;;;;;;6158256;23;20001;-89
2022/01/09 21:19:09;;;;;;;47.45;26.85;;;;;;;;;;6183975;23;20019;-89
2022/01/09 21:21:35;;;;;;;37.45;24.90;;;;;;;;;;6156285;23;20009;-89
2022/01/09 21:24:00;;;;;;;31.30;23.42;;;;;;;;;;6182672;23;20008;-89
2022/01/09 21:26:25;;;;;;;111.60;39.33;;;;;;;;;;6156187;23;20093;-89
2022/01/09 21:28:50;;;;;;;52.13;29.95;;;;;;;;;;6185484;23;20050;-89
2022/01/09 21:31:16;;;;;;;31.77;23.58;;;;;;;;;;6183945;23;20008;-89
2022/01/09 21:33:42;;;;;;;33.13;24.63;;;;;;;;;;6183053;23;20074;-89
2022/01/09 21:36:08;;;;;;;30.95;23.02;;;;;;;;;;6182405;23;20081;-89
2022/01/09 21:38:33;;;;;;;30.67;22.52;;;;;;;;;;6182217;23;20036;-89
2022/01/09 21:40:59;;;;;;;52.30;28.55;;;;;;;;;;6155782;23;20345;-89
2022/01/09 21:43:24;;;;;;;35.85;25.10;;;;;;;;;;6155710;23;20011;-89
2022/01/09 21:45:49;;;;;;;39.15;25.30;;;;;;;;;;6155894;23;20009;-89
2022/01/09 21:48:15;;;;;;;42.45;26.45;;;;;;;;;;6182579;23;20330;-89
2022/01/09 21:50:40;;;;;;;27.73;21.60;;;;;;;;;;6182572;23;20554;-89
2022/01/09 21:53:06;;;;;;;34.88;23.80;;;;;;;;;;6182466;23;20441;-89
2022/01/09 21:55:32;;;;;;;32.72;24.02;;;;;;;;;;6155956;23;19997;-89
2022/01/09 21:57:57;;;;;;;27.60;21.25;;;;;;;;;;6156220;23;20003;-89
2022/01/09 22:00:26;;;;;;;38.00;25.60;;;;;;;;;;6156666;23;20005;-89
2022/01/09 22:02:51;;;;;;;32.92;23.05;;;;;;;;;;6167446;23;20083;-89
2022/01/09 22:05:16;;;;;;;30.60;22.77;;;;;;;;;;6159162;23;20102;-89
2022/01/09 22:07:41;;;;;;;31.47;21.33;;;;;;;;;;6159639;23;20079;-89
2022/01/09 22:10:07;;;;;;;41.40;25.70;;;;;;;;;;6159695;23;20232;-89
2022/01/09 22:12:32;;;;;;;31.50;23.52;;;;;;;;;;6159369;23;20016;-89
2022/01/09 22:14:57;;;;;;;29.13;21.83;;;;;;;;;;6159491;23;20029;-89
2022/01/09 22:17:22;;;;;;;35.75;23.95;;;;;;;;;;6159753;23;20001;-89
2022/01/09 22:19:48;;;;;;;37.88;24.92;;;;;;;;;;6186480;23;20012;-89
2022/01/09 22:22:13;;;;;;;33.58;23.25;;;;;;;;;;6162023;23;20001;-89
2022/01/09 22:24:43;;;;;;;30.38;23.25;;;;;;;;;;6161379;23;20076;-89
2022/01/09 22:27:08;;;;;;;33.72;24.50;;;;;;;;;;6187820;23;20044;-89
2022/01/09 22:29:33;;;;;;;39.00;26.13;;;;;;;;;;6161373;23;20000;-88
2022/01/09 22:31:58;;;;;;;36.85;25.77;;;;;;;;;;6187819;23;20008;-89
2022/01/09 22:34:23;;;;;;;33.40;23.92;;;;;;;;;;6167096;23;19997;-89
2022/01/09 22:36:49;;;;;;;40.40;25.10;;;;;;;;;;6160918;23;20001;-89
2022/01/09 22:39:14;;;;;;;29.55;22.02;;;;;;;;;;6184346;23;20256;-89
2022/01/09 22:41:40;;;;;;;35.38;23.98;;;;;;;;;;6157743;23;20004;-89
2022/01/09 22:44:05;;;;;;;34.75;24.17;;;;;;;;;;6158504;23;20437;-89
2022/01/09 22:46:31;;;;;;;32.10;23.80;;;;;;;;;;6158735;23;20005;-89
2022/01/09 22:48:56;;;;;;;40.63;26.60;;;;;;;;;;6159915;23;19993;-89
2022/01/09 22:51:21;;;;;;;44.47;28.13;;;;;;;;;;6160707;23;20928;-90
2022/01/09 22:53:46;;;;;;;28.75;22.13;;;;;;;;;;6187426;23;20225;-90
2022/01/09 22:56:11;;;;;;;36.58;24.20;;;;;;;;;;6161354;23;20005;-90
2022/01/09 22:58:37;;;;;;;42.58;26.85;;;;;;;;;;6160997;23;20338;-90
2022/01/09 23:01:02;;;;;;;39.17;25.33;;;;;;;;;;6161355;23;20007;-90
2022/01/09 23:03:28;;;;;;;30.77;22.83;;;;;;;;;;6187357;23;19997;-90
2022/01/09 23:05:54;;;;;;;32.35;23.15;;;;;;;;;;6160690;23;20021;-90
2022/01/09 23:08:19;;;;;;;28.92;21.98;;;;;;;;;;6187349;23;19997;-90
2022/01/09 23:10:44;;;;;;;41.03;26.13;;;;;;;;;;6161175;23;19997;-90
2022/01/09 23:13:09;;;;;;;33.47;24.38;;;;;;;;;;6165894;23;20011;-90
2022/01/09 23:15:35;;;;;;;36.85;24.95;;;;;;;;;;6165327;23;20421;-90
2022/01/09 23:18:00;;;;;;;43.05;26.58;;;;;;;;;;6167010;23;20032;-90
2022/01/09 23:20:26;;;;;;;35.72;24.95;;;;;;;;;;6187339;23;20008;-90
2022/01/09 23:22:51;;;;;;;34.65;24.52;;;;;;;;;;6161200;23;20051;-89
2022/01/09 23:25:24;;;;;;;45.55;26.55;;;;;;;;;;6187503;23;20372;-89
2022/01/09 23:27:49;;;;;;;40.80;25.60;;;;;;;;;;6160621;23;19993;-90
2022/01/09 23:30:14;;;;;;;39.70;25.27;;;;;;;;;;6157794;23;20012;-90
2022/01/09 23:32:40;;;;;;;31.00;22.33;;;;;;;;;;6183102;23;20036;-90
2022/01/09 23:35:05;;;;;;;32.60;22.75;;;;;;;;;;6183860;23;20307;-90
2022/01/09 23:37:32;;;;;;;40.67;25.08;;;;;;;;;;6183558;23;20031;-89
2022/01/09 23:39:58;;;;;;;55.80;28.83;;;;;;;;;;6183800;23;20016;-90
2022/01/09 23:42:24;;;;;;;39.38;25.23;;;;;;;;;;6156733;23;20451;-89
2022/01/09 23:44:52;;;;;;;32.28;23.38;;;;;;;;;;6183841;23;19996;-90
2022/01/09 23:47:17;;;;;;;44.55;26.38;;;;;;;;;;6183596;23;20032;-90
2022/01/09 23:52:26;;;;;;;30.80;21.40;;;;;;;;;;6184225;23;20059;-90
2022/01/09 23:54:51;;;;;;;38.95;23.65;;;;;;;;;;6170893;23;20373;-90
2022/01/09 23:57:17;;;;;;;38.08;25.13;;;;;;;;;;6157225;23;20096;-90
2022/01/09 23:59:42;;;;;;;30.00;22.48;;;;;;;;;;6183035;23;20016;-90
